Estación Meteorológica Peña el Pijo (Robertgarden) [ 02/03/23 04:19:14 CET ]

Fecha Hora Presion(HPa) Temp (°C) Humedad % Rocio (°C) Viento ( m/s) Direccion Lluvia 1Hora(mm) Lluvia 24H(mm) LLuvia Total(mm)
2012-Dec-12 01:01:15 1007.700 -2.2 76 -5.9         178.19
2012-Dec-12 02:03:17 1007.300 -2.1 77 -5.6         178.19
2012-Dec-12 03:01:14 1006.900 -2.9 78 -6.2         178.19
2012-Dec-12 04:01:11 1006.900 -3.2 80 -6.2         178.19
2012-Dec-12 05:01:13 1006.400 -3.2 81 -6.0         178.19
2012-Dec-12 06:01:14 1006.100 -3.8 82 -6.4         178.19
2012-Dec-12 07:01:21 1006.300 -3.9 83 -6.4         178.19
2012-Dec-12 08:01:16 1006.600 -4.2 84 -6.5         178.19
2012-Dec-12 09:01:13 1006.400 -3.7 85 -5.9         178.19
2012-Dec-12 10:01:16 1006.900 0.4 84 -2.0         178.19
2012-Dec-12 11:01:16 1006.900 5.1 65 -1.0         178.19
2012-Dec-12 12:01:17 1006.300 7.9 56 -0.4         178.19
2012-Dec-12 13:01:18 1005.400 9.9 52 0.5         178.19
2012-Dec-12 14:01:14 1004.400 11.4 44 -0.5         178.19
2012-Dec-12 15:01:18 1003.900 11.7 42 -0.8         178.19
2012-Dec-12 16:01:12 1004.100 10.9 42 -1.6 1.6 ENE     178.19
2012-Dec-12 17:01:14 1004.100 8.5 48 -1.9         178.19
2012-Dec-12 18:01:12 1004.300 5.3 55 -3.1         178.19
2012-Dec-12 19:01:14 1004.600 2.0 65 -3.9         178.19
2012-Dec-12 20:01:17 1004.900 0.4 72 -4.1         178.19
2012-Dec-12 21:01:12 1005.200 -0.4 77 -3.9         178.19
2012-Dec-12 22:01:17 1005.300 -0.8 79 -4.0         178.19
2012-Dec-12 23:01:11 1005.200 -1.2 80 -4.2         178.19

Temperatura Máxima:11°    Temperatura Mínima:-4°
Presión Máxima:1007.700 Hpa    Presión Mínima:1003.900 Hpa


Volver